createdAt,value
2023-01-22T00:01:09.024Z,101300.16
2023-01-22T00:03:36.425Z,101298.06
2023-01-22T00:06:02.847Z,101304.88
2023-01-22T00:08:29.235Z,101297.50
2023-01-22T00:10:56.030Z,101291.03
2023-01-22T00:13:24.350Z,101294.41
2023-01-22T00:15:51.553Z,101291.22
2023-01-22T00:18:19.371Z,101295.38
2023-01-22T00:20:53.213Z,101297.06
2023-01-22T00:23:20.153Z,101287.34
2023-01-22T00:25:46.992Z,101292.72
2023-01-22T00:28:14.082Z,101292.03
2023-01-22T00:30:40.458Z,101291.50
2023-01-22T00:33:06.816Z,101289.50
2023-01-22T00:35:34.759Z,101281.41
2023-01-22T00:38:01.170Z,101285.03
2023-01-22T00:40:27.593Z,101285.22
2023-01-22T00:42:53.951Z,101281.03
2023-01-22T00:45:20.324Z,101272.16
2023-01-22T00:47:46.912Z,101280.94
2023-01-22T00:50:13.261Z,101276.22
2023-01-22T00:52:39.656Z,101279.19
2023-01-22T00:55:06.698Z,101273.97
2023-01-22T00:57:33.197Z,101269.91
2023-01-22T00:59:59.585Z,101264.47
2023-01-22T01:02:25.945Z,101262.66
2023-01-22T01:04:52.382Z,101259.31
2023-01-22T01:07:18.781Z,101263.09
2023-01-22T01:09:45.187Z,101260.38
2023-01-22T01:12:11.578Z,101265.69
2023-01-22T01:14:37.970Z,101263.88
2023-01-22T01:17:04.342Z,101264.47
2023-01-22T01:19:30.870Z,101262.56
2023-01-22T01:21:57.232Z,101269.69
2023-01-22T01:24:24.452Z,101267.31
2023-01-22T01:26:50.928Z,101268.13
2023-01-22T01:29:17.506Z,101268.09
2023-01-22T01:31:44.062Z,101267.13
2023-01-22T01:34:10.536Z,101261.84
2023-01-22T01:36:48.241Z,101267.16
2023-01-22T01:39:15.439Z,101265.69
2023-01-22T01:41:41.865Z,101257.88
2023-01-22T01:44:15.065Z,101255.97
2023-01-22T01:47:07.019Z,101262.19
2023-01-22T01:49:37.125Z,101255.91
2023-01-22T01:52:08.926Z,101258.13
2023-01-22T01:54:36.859Z,101251.03
2023-01-22T01:57:11.559Z,101252.03
2023-01-22T01:59:39.338Z,101256.41
2023-01-22T02:02:06.587Z,101253.03
2023-01-22T02:04:33.399Z,101250.13
2023-01-22T02:06:59.796Z,101252.25
2023-01-22T02:09:27.107Z,101255.38
2023-01-22T02:11:53.977Z,101258.81
2023-01-22T02:14:26.501Z,101253.56
2023-01-22T02:17:14.597Z,101241.00
2023-01-22T02:19:41.849Z,101250.47
2023-01-22T02:22:20.124Z,101245.47
2023-01-22T02:24:46.532Z,101247.56
2023-01-22T02:27:12.967Z,101240.13
2023-01-22T02:29:39.513Z,101246.06
2023-01-22T02:32:06.001Z,101241.59
2023-01-22T02:34:32.614Z,101249.94
2023-01-22T02:36:59.085Z,101243.53
2023-01-22T02:39:25.455Z,101238.63
2023-01-22T02:41:52.097Z,101247.25
2023-01-22T02:44:18.457Z,101250.72
2023-01-22T02:46:44.859Z,101252.47
2023-01-22T02:49:11.382Z,101245.34
2023-01-22T02:51:37.753Z,101248.47
2023-01-22T02:54:04.264Z,101245.03
2023-01-22T02:56:30.874Z,101240.53
2023-01-22T02:58:57.303Z,101239.94
2023-01-22T03:01:24.883Z,101239.56
2023-01-22T03:03:53.080Z,101231.50
2023-01-22T03:06:23.452Z,101233.78
2023-01-22T03:08:58.511Z,101236.78
2023-01-22T03:11:27.557Z,101233.59
2023-01-22T03:14:14.323Z,101238.19
2023-01-22T03:17:00.093Z,101237.28
2023-01-22T03:19:50.394Z,101233.00
2023-01-22T03:22:17.886Z,101232.81
2023-01-22T03:24:44.758Z,101226.78
2023-01-22T03:27:11.137Z,101232.03
2023-01-22T03:29:38.386Z,101227.72
2023-01-22T03:32:06.412Z,101226.00
2023-01-22T03:34:33.824Z,101221.66
2023-01-22T03:37:00.290Z,101229.22
2023-01-22T03:39:27.760Z,101228.56
2023-01-22T03:41:54.193Z,101232.81
2023-01-22T03:44:20.655Z,101230.53
2023-01-22T03:46:46.971Z,101233.22
2023-01-22T03:49:14.561Z,101238.84
2023-01-22T03:51:42.126Z,101233.63
2023-01-22T03:54:11.226Z,101239.31
2023-01-22T03:56:37.949Z,101241.69
2023-01-22T03:59:04.707Z,101239.16
2023-01-22T04:01:31.274Z,101238.75
2023-01-22T04:03:57.688Z,101237.06
2023-01-22T04:06:24.383Z,101235.66
2023-01-22T04:08:54.495Z,101239.84
2023-01-22T04:11:21.999Z,101244.59
2023-01-22T04:13:48.775Z,101241.66
2023-01-22T04:16:15.992Z,101249.47
2023-01-22T04:18:42.639Z,101242.84
2023-01-22T04:21:09.636Z,101239.56
2023-01-22T04:23:36.021Z,101240.94
2023-01-22T04:26:02.470Z,101243.75
2023-01-22T04:28:28.934Z,101240.25
2023-01-22T04:30:56.087Z,101244.31
2023-01-22T04:33:22.628Z,101235.56
2023-01-22T04:35:52.100Z,101242.66
2023-01-22T04:38:18.483Z,101235.78
2023-01-22T04:40:44.817Z,101234.84
2023-01-22T04:43:11.177Z,101234.78
2023-01-22T04:45:37.614Z,101232.78
2023-01-22T04:48:04.216Z,101233.00
2023-01-22T04:50:33.228Z,101227.81
2023-01-22T04:53:00.968Z,101224.03
2023-01-22T04:55:28.631Z,101231.84
2023-01-22T04:57:56.721Z,101228.44
2023-01-22T05:00:24.052Z,101236.50
2023-01-22T05:02:50.943Z,101230.97
2023-01-22T05:05:17.503Z,101236.97
2023-01-22T05:07:43.913Z,101238.53
2023-01-22T05:10:10.673Z,101238.06
2023-01-22T05:12:37.077Z,101242.25
2023-01-22T05:15:07.277Z,101242.50
2023-01-22T05:17:38.723Z,101243.22
2023-01-22T05:20:05.599Z,101252.84
2023-01-22T05:22:31.968Z,101252.81
2023-01-22T05:24:58.318Z,101252.91
2023-01-22T05:27:24.713Z,101248.59
2023-01-22T05:29:51.094Z,101246.03
2023-01-22T05:32:17.508Z,101250.44
2023-01-22T05:34:43.950Z,101253.13
2023-01-22T05:37:10.459Z,101258.25
2023-01-22T05:39:36.890Z,101252.22
2023-01-22T05:42:03.408Z,101259.28
2023-01-22T05:44:29.888Z,101252.19
2023-01-22T05:46:56.558Z,101260.03
2023-01-22T05:49:24.242Z,101265.50
2023-01-22T05:51:50.674Z,101263.75
2023-01-22T05:54:17.042Z,101255.88
2023-01-22T05:56:43.385Z,101263.63
2023-01-22T05:59:11.167Z,101250.78
2023-01-22T06:01:37.621Z,101256.81
2023-01-22T06:04:04.104Z,101250.63
2023-01-22T06:06:30.462Z,101255.97
2023-01-22T06:08:56.839Z,101255.09
2023-01-22T06:11:23.211Z,101264.13
2023-01-22T06:13:49.692Z,101264.50
2023-01-22T06:16:16.105Z,101264.75
2023-01-22T06:18:42.591Z,101262.88
2023-01-22T06:21:09.082Z,101267.44
2023-01-22T06:23:35.845Z,101267.31
2023-01-22T06:26:05.253Z,101263.91
2023-01-22T06:28:31.905Z,101265.72
2023-01-22T06:31:07.590Z,101264.75
2023-01-22T06:33:35.119Z,101269.19
2023-01-22T06:36:02.996Z,101269.09
2023-01-22T06:38:30.012Z,101263.09
2023-01-22T06:40:58.441Z,101260.28
2023-01-22T06:43:25.679Z,101268.84
2023-01-22T06:45:52.919Z,101273.59
2023-01-22T06:48:19.310Z,101269.75
2023-01-22T06:50:45.784Z,101285.47
2023-01-22T06:53:12.182Z,101277.59
2023-01-22T06:55:38.728Z,101275.84
2023-01-22T06:58:05.191Z,101288.56
2023-01-22T07:00:31.589Z,101293.56
2023-01-22T07:02:58.113Z,101292.19
2023-01-22T07:05:24.646Z,101288.47
2023-01-22T07:07:54.119Z,101291.94
2023-01-22T07:10:21.302Z,101301.72
2023-01-22T07:12:49.531Z,101301.56
2023-01-22T07:15:16.099Z,101314.91
2023-01-22T07:17:42.524Z,101309.81
2023-01-22T07:20:09.780Z,101309.72
2023-01-22T07:22:36.245Z,101315.69
2023-01-22T07:25:02.768Z,101320.91
2023-01-22T07:27:30.356Z,101323.56
2023-01-22T07:29:56.722Z,101320.44
2023-01-22T07:32:23.218Z,101332.47
2023-01-22T07:34:49.635Z,101329.25
2023-01-22T07:37:16.022Z,101335.94
2023-01-22T07:39:42.413Z,101335.28
2023-01-22T07:42:08.851Z,101330.72
2023-01-22T07:44:36.932Z,101336.84
2023-01-22T07:47:03.363Z,101337.81
2023-01-22T07:49:29.763Z,101342.16
2023-01-22T07:51:56.174Z,101343.22
2023-01-22T07:54:22.634Z,101343.25
2023-01-22T07:56:49.181Z,101350.34
2023-01-22T07:59:15.539Z,101350.06
2023-01-22T08:01:41.996Z,101353.72
2023-01-22T08:04:08.377Z,101358.22
2023-01-22T08:06:34.834Z,101361.16
2023-01-22T08:09:01.281Z,101349.34
2023-01-22T08:11:28.298Z,101363.50
2023-01-22T08:13:55.000Z,101359.22
2023-01-22T08:16:21.731Z,101363.63
2023-01-22T08:18:48.253Z,101369.19
2023-01-22T08:21:14.755Z,101370.00
2023-01-22T08:23:43.604Z,101368.97
2023-01-22T08:26:11.365Z,101364.69
2023-01-22T08:28:38.721Z,101366.53
2023-01-22T08:31:06.568Z,101371.69
2023-01-22T08:33:34.431Z,101374.91
2023-01-22T08:36:00.791Z,101371.50
2023-01-22T08:38:27.379Z,101385.50
2023-01-22T08:40:53.855Z,101372.31
2023-01-22T08:43:20.336Z,101378.50
2023-01-22T08:45:50.125Z,101381.09
2023-01-22T08:48:17.268Z,101379.31
2023-01-22T08:50:43.749Z,101390.69
2023-01-22T08:53:10.269Z,101393.50
2023-01-22T08:55:36.725Z,101395.25
2023-01-22T08:58:03.276Z,101386.63
2023-01-22T09:00:30.142Z,101393.78
2023-01-22T09:02:58.306Z,101390.13
2023-01-22T09:05:24.764Z,101396.13
2023-01-22T09:07:51.813Z,101397.97
2023-01-22T09:10:20.675Z,101392.59
2023-01-22T09:12:48.069Z,101398.94
2023-01-22T09:15:15.143Z,101398.25
2023-01-22T09:17:42.047Z,101404.13
2023-01-22T09:20:09.323Z,101398.22
2023-01-22T09:22:35.734Z,101403.13
2023-01-22T09:25:02.260Z,101403.44
2023-01-22T09:27:28.684Z,101408.72
2023-01-22T09:29:55.113Z,101408.84
2023-01-22T09:32:21.620Z,101401.25
2023-01-22T09:34:47.975Z,101404.91
2023-01-22T09:37:14.999Z,101404.06
2023-01-22T09:39:41.459Z,101402.25
2023-01-22T09:42:15.258Z,101404.16
2023-01-22T09:44:46.131Z,101402.59
2023-01-22T09:47:21.761Z,101407.91
2023-01-22T09:49:54.218Z,101418.22
2023-01-22T09:52:24.574Z,101415.16
2023-01-22T09:54:50.970Z,101418.25
2023-01-22T09:57:30.821Z,101414.59
2023-01-22T09:59:58.431Z,101418.41
2023-01-22T10:02:46.361Z,101412.63
2023-01-22T10:05:33.430Z,101422.75
2023-01-22T10:08:29.179Z,101418.81
2023-01-22T10:10:55.579Z,101419.72
2023-01-22T10:13:29.295Z,101421.41
2023-01-22T10:15:56.805Z,101424.28
2023-01-22T10:18:56.533Z,101426.50
2023-01-22T10:21:32.045Z,101432.22
2023-01-22T10:23:59.490Z,101428.59
2023-01-22T10:26:43.017Z,101432.69
2023-01-22T10:29:14.965Z,101425.53
2023-01-22T10:31:51.732Z,101431.44
2023-01-22T10:34:33.187Z,101429.72
2023-01-22T10:37:18.759Z,101430.91
2023-01-22T10:39:47.416Z,101429.09
2023-01-22T10:42:18.308Z,101421.16
2023-01-22T10:44:45.406Z,101419.50
2023-01-22T10:47:21.058Z,101416.81
2023-01-22T10:49:48.905Z,101427.69
2023-01-22T10:52:24.375Z,101417.13
2023-01-22T10:54:55.335Z,101422.81
2023-01-22T10:57:25.342Z,101413.56
2023-01-22T11:00:05.693Z,101425.94
2023-01-22T11:02:35.305Z,101426.47
2023-01-22T11:05:20.823Z,101422.41
2023-01-22T11:07:58.971Z,101419.66
2023-01-22T11:10:47.152Z,101425.91
2023-01-22T11:13:25.885Z,101425.31
2023-01-22T11:15:58.299Z,101429.81
2023-01-22T11:18:44.460Z,101435.47
2023-01-22T11:21:25.580Z,101429.44
2023-01-22T11:23:57.976Z,101434.84
2023-01-22T11:26:43.284Z,101424.38
2023-01-22T11:29:28.915Z,101433.22
2023-01-22T11:32:21.634Z,101434.19
2023-01-22T11:35:03.861Z,101434.19
2023-01-22T11:37:48.101Z,101428.13
2023-01-22T11:40:33.074Z,101419.97
2023-01-22T11:43:33.215Z,101428.56
2023-01-22T11:46:19.984Z,101430.16
2023-01-22T11:48:52.403Z,101427.41
2023-01-22T11:51:36.994Z,101428.44
2023-01-22T11:54:27.395Z,101423.34
2023-01-22T11:56:56.546Z,101427.38
2023-01-22T11:59:26.085Z,101419.19
2023-01-22T12:02:22.768Z,101414.03
2023-01-22T12:05:13.330Z,101417.38
2023-01-22T12:07:45.832Z,101406.81
2023-01-22T12:10:35.253Z,101408.41
2023-01-22T12:13:26.786Z,101406.28
2023-01-22T12:16:14.964Z,101406.50
2023-01-22T12:19:12.180Z,101407.72
2023-01-22T12:21:53.171Z,101405.16
2023-01-22T12:24:39.752Z,101408.59
2023-01-22T12:27:22.149Z,101406.69
2023-01-22T12:30:13.959Z,101409.31
2023-01-22T12:32:44.567Z,101413.81
2023-01-22T12:35:20.186Z,101419.06
2023-01-22T12:37:55.655Z,101413.94
2023-01-22T12:40:46.028Z,101413.03
2023-01-22T12:43:12.418Z,101421.91
2023-01-22T12:46:09.487Z,101409.88
2023-01-22T12:49:01.476Z,101418.63
2023-01-22T12:51:49.837Z,101410.56
2023-01-22T12:54:20.180Z,101411.94
2023-01-22T12:56:48.502Z,101413.13
2023-01-22T12:59:36.881Z,101406.38
2023-01-22T13:02:25.032Z,101408.53
2023-01-22T13:04:52.277Z,101412.25
2023-01-22T13:07:36.408Z,101412.25
2023-01-22T13:10:21.765Z,101414.94
2023-01-22T13:12:51.091Z,101413.13
2023-01-22T13:15:25.242Z,101412.13
2023-01-22T13:18:25.457Z,101416.72
2023-01-22T13:21:08.070Z,101422.78
2023-01-22T13:23:39.816Z,101424.75
2023-01-22T13:26:06.226Z,101424.63
2023-01-22T13:28:33.117Z,101423.13
2023-01-22T13:31:05.449Z,101424.16
2023-01-22T13:33:32.404Z,101421.41
2023-01-22T13:36:08.633Z,101436.09
2023-01-22T13:38:35.186Z,101428.81
2023-01-22T13:41:18.563Z,101436.88
2023-01-22T13:43:45.046Z,101431.47
2023-01-22T13:46:14.840Z,101437.72
2023-01-22T13:48:41.734Z,101438.13
2023-01-22T13:51:18.121Z,101434.31
2023-01-22T13:53:50.128Z,101441.25
2023-01-22T13:56:21.293Z,101440.22
2023-01-22T13:58:49.273Z,101440.78
2023-01-22T14:01:33.900Z,101437.47
2023-01-22T14:04:06.426Z,101448.03
2023-01-22T14:06:44.436Z,101448.97
2023-01-22T14:09:10.832Z,101449.56
2023-01-22T14:11:38.828Z,101449.59
2023-01-22T14:14:15.441Z,101447.16
2023-01-22T14:16:41.842Z,101452.41
2023-01-22T14:19:08.273Z,101454.81
2023-01-22T14:21:35.053Z,101449.75
2023-01-22T14:24:01.469Z,101451.53
2023-01-22T14:26:27.858Z,101453.09
2023-01-22T14:28:54.266Z,101462.72
2023-01-22T14:31:20.655Z,101460.69
2023-01-22T14:33:47.448Z,101459.50
2023-01-22T14:36:13.845Z,101467.56
2023-01-22T14:38:40.241Z,101467.44
2023-01-22T14:41:07.250Z,101467.44
2023-01-22T14:43:34.025Z,101470.91
2023-01-22T14:46:00.441Z,101480.09
2023-01-22T14:48:26.904Z,101478.25
2023-01-22T14:50:53.349Z,101479.69
2023-01-22T14:53:19.785Z,101475.47
2023-01-22T14:55:46.673Z,101470.09
2023-01-22T14:58:13.177Z,101479.00
2023-01-22T15:00:39.710Z,101473.59
2023-01-22T15:03:06.208Z,101478.22
2023-01-22T15:05:35.329Z,101474.69
2023-01-22T15:08:02.189Z,101487.88
2023-01-22T15:10:28.823Z,101472.13
2023-01-22T15:12:55.270Z,101477.31
2023-01-22T15:15:26.307Z,101478.41
2023-01-22T15:17:54.910Z,101478.34
2023-01-22T15:20:22.207Z,101489.56
2023-01-22T15:22:52.564Z,101487.16
2023-01-22T15:25:19.209Z,101490.50
2023-01-22T15:27:45.721Z,101487.00
2023-01-22T15:30:13.232Z,101496.53
2023-01-22T15:32:40.254Z,101495.66
2023-01-22T15:35:06.914Z,101493.00
2023-01-22T15:37:33.365Z,101498.06
2023-01-22T15:39:59.949Z,101495.50
2023-01-22T15:42:26.391Z,101498.31
2023-01-22T15:44:52.830Z,101493.59
2023-01-22T15:47:19.187Z,101497.16
2023-01-22T15:49:45.605Z,101503.28
2023-01-22T15:52:12.003Z,101509.06
2023-01-22T15:54:38.462Z,101507.59
2023-01-22T15:57:04.809Z,101514.34
2023-01-22T15:59:31.456Z,101508.25
2023-01-22T16:01:57.789Z,101506.47
2023-01-22T16:04:24.278Z,101509.91
2023-01-22T16:06:51.806Z,101510.88
2023-01-22T16:09:18.237Z,101512.41
2023-01-22T16:11:44.610Z,101522.06
2023-01-22T16:14:11.345Z,101524.00
2023-01-22T16:16:38.567Z,101528.19
2023-01-22T16:19:07.668Z,101529.16
2023-01-22T16:21:34.810Z,101538.84
2023-01-22T16:24:02.221Z,101529.19
2023-01-22T16:26:31.489Z,101537.22
2023-01-22T16:28:59.672Z,101532.53
2023-01-22T16:31:29.241Z,101533.59
2023-01-22T16:33:59.386Z,101532.94
2023-01-22T16:36:29.495Z,101539.16
2023-01-22T16:38:56.224Z,101534.56
2023-01-22T16:41:30.988Z,101544.22
2023-01-22T16:43:59.234Z,101547.56
2023-01-22T16:46:30.873Z,101541.53
2023-01-22T16:49:06.421Z,101548.94
2023-01-22T16:51:41.501Z,101554.28
2023-01-22T16:54:10.048Z,101545.22
2023-01-22T16:56:36.591Z,101547.69
2023-01-22T16:59:02.980Z,101552.03
2023-01-22T17:01:30.573Z,101552.06
2023-01-22T17:03:57.013Z,101544.38
2023-01-22T17:06:37.571Z,101555.78
2023-01-22T17:09:03.979Z,101550.31
2023-01-22T17:11:30.408Z,101551.56
2023-01-22T17:13:58.499Z,101558.22
2023-01-22T17:16:25.062Z,101557.53
2023-01-22T17:18:53.797Z,101571.31
2023-01-22T17:21:20.201Z,101570.66
2023-01-22T17:23:46.880Z,101567.75
2023-01-22T17:26:15.734Z,101573.88
2023-01-22T17:28:42.297Z,101571.84
2023-01-22T17:31:11.040Z,101566.78
2023-01-22T17:33:37.746Z,101573.69
2023-01-22T17:36:05.972Z,101579.25
2023-01-22T17:38:37.612Z,101576.41
2023-01-22T17:41:10.995Z,101573.63
2023-01-22T17:43:38.737Z,101581.91
2023-01-22T17:46:10.652Z,101583.53
2023-01-22T17:48:37.464Z,101590.22
2023-01-22T17:51:09.589Z,101586.19
2023-01-22T17:53:38.701Z,101584.38
2023-01-22T17:56:11.160Z,101588.13
2023-01-22T17:58:40.029Z,101594.13
2023-01-22T18:01:08.317Z,101590.91
2023-01-22T18:03:35.996Z,101590.59
2023-01-22T18:06:03.480Z,101595.50
2023-01-22T18:08:31.639Z,101601.53
2023-01-22T18:10:58.698Z,101600.81
2023-01-22T18:13:26.074Z,101602.84
2023-01-22T18:15:52.835Z,101603.75
2023-01-22T18:18:19.283Z,101606.09
2023-01-22T18:20:46.814Z,101602.03
2023-01-22T18:23:14.977Z,101598.69
2023-01-22T18:25:46.586Z,101605.63
2023-01-22T18:28:14.722Z,101616.16
2023-01-22T18:30:41.161Z,101609.25
2023-01-22T18:33:07.727Z,101614.97
2023-01-22T18:35:34.602Z,101615.75
2023-01-22T18:38:01.863Z,101614.13
2023-01-22T18:40:30.788Z,101624.59
2023-01-22T18:42:57.475Z,101620.34
2023-01-22T18:45:24.645Z,101615.19
2023-01-22T18:47:54.474Z,101622.75
2023-01-22T18:50:22.333Z,101617.56
2023-01-22T18:52:49.264Z,101620.13
2023-01-22T18:55:16.814Z,101616.69
2023-01-22T18:57:46.256Z,101621.22
2023-01-22T19:00:13.685Z,101623.94
2023-01-22T19:02:40.132Z,101620.97
2023-01-22T19:05:07.318Z,101636.84
2023-01-22T19:07:38.080Z,101635.75
2023-01-22T19:10:07.829Z,101641.38
2023-01-22T19:12:34.201Z,101638.00
2023-01-22T19:15:00.638Z,101640.31
2023-01-22T19:17:27.041Z,101638.00
2023-01-22T19:19:53.529Z,101641.41
2023-01-22T19:22:23.302Z,101635.09
2023-01-22T19:24:50.775Z,101643.84
2023-01-22T19:27:17.547Z,101648.22
2023-01-22T19:29:46.680Z,101648.19
2023-01-22T19:32:16.314Z,101653.59
2023-01-22T19:34:43.149Z,101655.53
2023-01-22T19:37:09.694Z,101656.28
2023-01-22T19:39:36.585Z,101658.22
2023-01-22T19:42:05.096Z,101652.06
2023-01-22T19:44:33.390Z,101657.09
2023-01-22T19:47:00.803Z,101658.25
2023-01-22T19:49:27.480Z,101663.25
2023-01-22T19:51:53.845Z,101664.03
2023-01-22T19:54:20.354Z,101664.91
2023-01-22T19:56:46.781Z,101664.88
2023-01-22T19:59:18.556Z,101669.59
2023-01-22T20:01:45.946Z,101669.19
2023-01-22T20:04:25.118Z,101667.56
2023-01-22T20:07:00.521Z,101672.22
2023-01-22T20:09:27.665Z,101676.09
2023-01-22T20:11:55.776Z,101680.47
2023-01-22T20:14:29.791Z,101684.16
2023-01-22T20:16:57.160Z,101678.63
2023-01-22T20:19:23.734Z,101678.47
2023-01-22T20:21:50.189Z,101680.06
2023-01-22T20:24:16.784Z,101685.84
2023-01-22T20:26:43.241Z,101684.59
2023-01-22T20:29:09.678Z,101687.25
2023-01-22T20:31:36.178Z,101697.72
2023-01-22T20:34:04.473Z,101693.66
2023-01-22T20:36:31.487Z,101693.16
2023-01-22T20:38:59.409Z,101694.16
2023-01-22T20:41:30.710Z,101681.91
2023-01-22T20:43:57.628Z,101682.69
2023-01-22T20:46:25.955Z,101691.44
2023-01-22T20:48:55.724Z,101699.69
2023-01-22T20:51:25.196Z,101706.13
2023-01-22T20:53:53.938Z,101711.22
2023-01-22T20:56:25.345Z,101700.00
2023-01-22T20:58:59.230Z,101701.22
2023-01-22T21:01:26.657Z,101695.72
2023-01-22T21:03:55.318Z,101685.50
2023-01-22T21:06:22.079Z,101684.59
2023-01-22T21:08:51.817Z,101695.31
2023-01-22T21:11:20.583Z,101691.16
2023-01-22T21:13:48.854Z,101688.69
2023-01-22T21:16:30.693Z,101699.97
2023-01-22T21:19:01.040Z,101704.44
2023-01-22T21:21:28.579Z,101707.63
2023-01-22T21:23:55.845Z,101704.22
2023-01-22T21:26:25.485Z,101707.78
2023-01-22T21:29:05.402Z,101707.59
2023-01-22T21:31:31.917Z,101709.34
2023-01-22T21:34:02.913Z,101707.91
2023-01-22T21:36:38.252Z,101709.38
2023-01-22T21:39:06.573Z,101711.94
2023-01-22T21:41:33.760Z,101709.41
2023-01-22T21:44:18.919Z,101707.63
2023-01-22T21:46:47.066Z,101702.03
2023-01-22T21:49:16.360Z,101706.56
2023-01-22T21:51:44.146Z,101702.94
2023-01-22T21:54:11.982Z,101707.41
2023-01-22T21:56:38.396Z,101703.16
2023-01-22T21:59:04.822Z,101706.66
2023-01-22T22:01:31.988Z,101700.44
2023-01-22T22:04:05.782Z,101705.06
2023-01-22T22:06:33.321Z,101697.94
2023-01-22T22:09:01.702Z,101702.16
2023-01-22T22:11:28.482Z,101701.53
2023-01-22T22:13:55.157Z,101701.31
2023-01-22T22:16:21.949Z,101698.84
2023-01-22T22:18:48.767Z,101705.09
2023-01-22T22:21:15.559Z,101708.56
2023-01-22T22:23:42.198Z,101710.09
2023-01-22T22:26:10.487Z,101709.44
2023-01-22T22:28:36.950Z,101702.28
2023-01-22T22:31:12.636Z,101712.34
2023-01-22T22:33:43.258Z,101719.56
2023-01-22T22:36:11.101Z,101704.00
2023-01-22T22:38:38.063Z,101724.53
2023-01-22T22:41:07.113Z,101732.72
2023-01-22T22:43:35.541Z,101722.97
2023-01-22T22:46:07.266Z,101734.38
2023-01-22T22:48:34.071Z,101729.72
2023-01-22T22:51:00.823Z,101717.09
2023-01-22T22:53:27.304Z,101732.66
2023-01-22T22:55:53.732Z,101732.78
2023-01-22T22:58:20.652Z,101730.84
2023-01-22T23:00:47.038Z,101731.59
2023-01-22T23:03:13.818Z,101732.50
2023-01-22T23:05:41.075Z,101734.84
2023-01-22T23:08:07.509Z,101735.88
2023-01-22T23:10:33.970Z,101734.19
2023-01-22T23:13:02.329Z,101718.53
2023-01-22T23:15:30.537Z,101726.28
2023-01-22T23:17:58.224Z,101717.81
2023-01-22T23:20:25.227Z,101728.81
2023-01-22T23:22:56.390Z,101732.09
2023-01-22T23:25:23.186Z,101732.31
2023-01-22T23:27:49.589Z,101737.72
2023-01-22T23:30:16.325Z,101735.94
2023-01-22T23:32:44.347Z,101720.16
2023-01-22T23:35:11.222Z,101729.78
2023-01-22T23:37:37.631Z,101720.13
2023-01-22T23:40:04.389Z,101733.06
2023-01-22T23:42:30.821Z,101727.16
2023-01-22T23:44:57.210Z,101727.19
2023-01-22T23:47:26.895Z,101726.72
2023-01-22T23:49:53.393Z,101732.38
2023-01-22T23:52:19.946Z,101739.03
2023-01-22T23:54:46.442Z,101732.00
2023-01-22T23:57:12.862Z,101739.19
2023-01-22T23:59:39.327Z,101735.91
